Time;durP1;ratioP1;P1;durP2;ratioP2;P2;SDS_P1;SDS_P2;PMS_P1;PMS_P2;Temp;Humidity;BMP_temperature;BMP_pressure;BME280_temperature;BME280_humidity;BME280_pressure;Samples;Min_cycle;Max_cycle;Signal;HPM_P1;HPM_P2
2023/07/29 00:01:51;;;;;;;15.60;9.90;;;24.50;77.20;;;;;;4939471;29;20119;-81
2023/07/29 00:04:18;;;;;;;15.77;10.07;;;24.50;77.10;;;;;;4939151;29;20295;-80
2023/07/29 00:06:44;;;;;;;16.33;10.52;;;24.50;77.30;;;;;;4937995;29;20027;-79
2023/07/29 00:09:10;;;;;;;15.27;10.70;;;24.50;77.50;;;;;;4937595;29;20110;-81
2023/07/29 00:11:36;;;;;;;11.33;10.20;;;24.50;77.30;;;;;;4922705;29;20499;-79
2023/07/29 00:14:02;;;;;;;12.33;10.27;;;24.50;77.40;;;;;;4939581;29;20035;-80
2023/07/29 00:16:28;;;;;;;14.65;9.98;;;24.50;77.30;;;;;;4937801;29;20040;-80
2023/07/29 00:18:54;;;;;;;11.87;10.57;;;24.50;77.50;;;;;;4937619;29;20038;-78
2023/07/29 00:21:20;;;;;;;17.83;10.48;;;24.40;77.80;;;;;;4939288;29;20034;-79
2023/07/29 00:23:46;;;;;;;14.20;10.87;;;24.40;77.80;;;;;;4938110;29;20083;-80
2023/07/29 00:26:11;;;;;;;14.33;10.67;;;24.40;78.10;;;;;;4938771;29;20028;-79
2023/07/29 00:28:37;;;;;;;13.33;10.57;;;24.40;78.10;;;;;;4937997;29;20039;-80
2023/07/29 00:31:04;;;;;;;13.60;10.77;;;24.40;78.10;;;;;;4938251;29;20055;-80
2023/07/29 00:33:30;;;;;;;12.40;10.30;;;24.30;78.10;;;;;;4937448;29;20414;-79
2023/07/29 00:35:55;;;;;;;12.33;10.70;;;24.40;78.30;;;;;;4919935;29;20036;-79
2023/07/29 00:38:21;;;;;;;18.53;11.33;;;24.30;78.30;;;;;;4937142;29;20031;-80
2023/07/29 00:40:47;;;;;;;12.07;10.60;;;24.30;78.40;;;;;;4937206;29;20433;-80
2023/07/29 00:43:14;;;;;;;14.30;10.57;;;24.30;78.40;;;;;;4935683;29;20032;-79
2023/07/29 00:45:44;;;;;;;16.17;10.70;;;24.30;78.70;;;;;;4935552;29;20039;-79
2023/07/29 00:48:10;;;;;;;12.85;9.75;;;24.30;78.50;;;;;;4937097;29;20035;-80
2023/07/29 00:50:36;;;;;;;14.90;9.93;;;24.30;78.60;;;;;;4939163;29;20082;-81
2023/07/29 00:53:02;;;;;;;14.38;11.10;;;24.20;78.70;;;;;;4939889;29;20032;-79
2023/07/29 00:55:28;;;;;;;12.20;10.60;;;24.20;78.80;;;;;;4939578;29;20032;-80
2023/07/29 00:57:54;;;;;;;15.80;10.82;;;24.10;78.60;;;;;;4939253;29;20103;-79
2023/07/29 01:00:21;;;;;;;17.70;11.37;;;24.00;79.00;;;;;;4939148;29;20103;-80
2023/07/29 01:02:48;;;;;;;15.93;10.60;;;23.90;79.00;;;;;;4939527;29;20798;-80
2023/07/29 01:05:16;;;;;;;16.80;11.13;;;23.90;78.80;;;;;;4939215;29;20071;-80
2023/07/29 01:07:54;;;;;;;16.15;10.57;;;23.90;79.30;;;;;;4939701;29;20038;-80
2023/07/29 01:10:46;;;;;;;12.88;10.95;;;24.00;79.30;;;;;;4939167;29;20035;-79
2023/07/29 01:13:12;;;;;;;13.48;10.45;;;23.90;79.50;;;;;;4940555;29;20039;-79
2023/07/29 01:15:58;;;;;;;13.60;10.87;;;23.90;79.90;;;;;;4938933;29;20040;-79
2023/07/29 01:18:29;;;;;;;14.00;10.82;;;23.90;78.90;;;;;;4939219;29;20031;-79
2023/07/29 01:20:59;;;;;;;11.07;9.90;;;23.90;79.90;;;;;;4939222;29;20043;-80
2023/07/29 01:23:33;;;;;;;15.07;9.38;;;23.90;80.30;;;;;;4923358;29;20028;-80
2023/07/29 01:25:59;;;;;;;10.70;9.63;;;23.80;80.60;;;;;;4939403;29;20036;-80
2023/07/29 01:28:26;;;;;;;15.40;11.10;;;23.80;81.10;;;;;;4939486;29;20042;-79
2023/07/29 01:31:12;;;;;;;12.15;10.63;;;23.80;80.60;;;;;;4939065;29;20039;-80
2023/07/29 01:33:57;;;;;;;13.40;9.90;;;23.80;80.70;;;;;;4939091;29;20056;-81
2023/07/29 01:36:28;;;;;;;14.82;9.93;;;23.80;79.80;;;;;;4941187;29;20023;-79
2023/07/29 01:38:55;;;;;;;10.90;9.57;;;23.80;80.30;;;;;;4938835;29;20042;-79
2023/07/29 01:41:22;;;;;;;13.77;10.75;;;23.70;80.80;;;;;;4970269;23;20048;-78
2023/07/29 01:43:49;;;;;;;14.75;10.40;;;23.80;80.80;;;;;;4902117;29;20032;-78
2023/07/29 01:46:15;;;;;;;13.18;10.18;;;23.80;81.40;;;;;;4917993;29;20028;-78
2023/07/29 01:48:41;;;;;;;13.10;10.05;;;23.70;80.80;;;;;;4919706;29;20039;-79
2023/07/29 01:51:08;;;;;;;11.70;10.50;;;23.70;80.70;;;;;;4917399;29;20058;-79
2023/07/29 01:53:33;;;;;;;11.65;9.00;;;23.80;81.10;;;;;;4919593;29;20032;-79
2023/07/29 01:55:59;;;;;;;13.73;9.80;;;23.70;80.90;;;;;;4917750;29;20083;-78
2023/07/29 01:58:25;;;;;;;12.27;10.02;;;23.70;80.70;;;;;;4917793;29;20063;-79
2023/07/29 02:00:51;;;;;;;14.03;10.67;;;23.70;80.80;;;;;;4916708;29;20133;-80
2023/07/29 02:03:18;;;;;;;12.30;10.93;;;23.60;81.00;;;;;;4933241;29;20032;-78
2023/07/29 02:05:43;;;;;;;13.77;11.38;;;23.60;81.10;;;;;;4917319;29;20032;-79
2023/07/29 02:08:10;;;;;;;13.98;11.30;;;23.60;81.50;;;;;;4916920;29;20040;-79
2023/07/29 02:10:37;;;;;;;15.35;11.40;;;23.50;81.80;;;;;;4915967;29;20032;-78
2023/07/29 02:13:03;;;;;;;16.13;10.95;;;23.50;81.80;;;;;;4916613;29;20048;-78
2023/07/29 02:15:29;;;;;;;14.50;11.82;;;23.50;81.80;;;;;;4933200;29;20406;-79
2023/07/29 02:17:55;;;;;;;12.00;10.70;;;23.50;81.80;;;;;;4917630;29;20486;-78
2023/07/29 02:20:21;;;;;;;12.53;11.23;;;23.50;82.00;;;;;;4918596;29;20047;-79
2023/07/29 02:22:48;;;;;;;15.67;11.30;;;23.40;82.00;;;;;;4917444;29;20063;-78
2023/07/29 02:25:14;;;;;;;17.30;13.07;;;23.40;82.60;;;;;;4917385;29;20268;-79
2023/07/29 02:27:40;;;;;;;16.90;13.30;;;23.30;82.40;;;;;;4918875;29;20297;-79
2023/07/29 02:30:09;;;;;;;17.07;13.00;;;23.40;82.50;;;;;;4901532;29;20042;-78
2023/07/29 02:32:35;;;;;;;18.65;13.70;;;23.30;82.50;;;;;;4916736;29;20050;-79
2023/07/29 02:35:01;;;;;;;21.00;13.40;;;23.30;83.00;;;;;;4917313;29;20495;-78
2023/07/29 02:37:26;;;;;;;15.93;13.43;;;23.20;83.00;;;;;;4916990;29;20389;-79
2023/07/29 02:39:52;;;;;;;14.23;12.10;;;23.20;83.10;;;;;;4917075;29;20093;-79
2023/07/29 02:42:18;;;;;;;19.37;14.57;;;23.20;83.80;;;;;;4932700;29;20032;-79
2023/07/29 02:44:44;;;;;;;17.70;15.17;;;23.20;84.00;;;;;;4917069;29;20092;-79
2023/07/29 02:47:10;;;;;;;19.47;14.30;;;23.20;83.40;;;;;;4918404;29;20513;-79
2023/07/29 02:49:36;;;;;;;18.07;13.50;;;23.20;83.70;;;;;;4917086;29;20123;-78
2023/07/29 02:52:01;;;;;;;17.67;14.73;;;23.30;83.20;;;;;;4917661;29;20035;-78
2023/07/29 02:54:27;;;;;;;16.47;12.80;;;23.30;83.10;;;;;;4917897;29;20028;-79
2023/07/29 02:56:53;;;;;;;15.83;13.43;;;23.30;82.90;;;;;;4932805;29;20127;-79
2023/07/29 02:59:20;;;;;;;20.10;13.18;;;23.30;82.70;;;;;;4916601;29;20118;-79
2023/07/29 03:01:46;;;;;;;15.10;13.40;;;23.30;82.70;;;;;;4916575;29;20474;-79
2023/07/29 03:04:12;;;;;;;17.20;13.57;;;23.30;82.90;;;;;;4916650;29;20123;-79
2023/07/29 03:06:39;;;;;;;16.80;12.73;;;23.30;82.80;;;;;;4915867;29;20066;-79
2023/07/29 03:09:05;;;;;;;15.60;13.10;;;23.30;82.80;;;;;;4916381;29;20056;-78
2023/07/29 03:11:31;;;;;;;16.37;13.27;;;23.30;83.20;;;;;;4898361;29;20032;-78
2023/07/29 03:13:57;;;;;;;14.80;13.33;;;23.30;83.10;;;;;;4916852;29;20028;-78
2023/07/29 03:16:23;;;;;;;16.92;14.15;;;23.20;83.40;;;;;;4890305;29;20033;-80
2023/07/29 03:18:53;;;;;;;14.40;12.90;;;23.20;83.50;;;;;;4922005;29;20060;-78
2023/07/29 03:21:19;;;;;;;15.57;13.67;;;23.20;83.60;;;;;;4917690;29;20032;-78
2023/07/29 03:23:45;;;;;;;15.40;13.83;;;23.20;83.40;;;;;;4899481;29;20096;-79
2023/07/29 03:26:11;;;;;;;23.33;16.00;;;23.20;83.40;;;;;;4916724;29;20099;-78
2023/07/29 03:28:41;;;;;;;15.77;14.18;;;23.10;83.80;;;;;;4915500;29;20043;-79
2023/07/29 03:31:08;;;;;;;16.10;14.35;;;23.10;84.20;;;;;;4910930;29;20028;-79
2023/07/29 03:33:34;;;;;;;19.65;14.68;;;23.00;84.60;;;;;;4915089;29;20024;-79
2023/07/29 03:36:00;;;;;;;19.77;14.73;;;22.90;84.80;;;;;;4931874;29;20036;-78
2023/07/29 03:38:27;;;;;;;23.17;14.67;;;22.90;85.00;;;;;;4916299;29;20028;-78
2023/07/29 03:40:53;;;;;;;23.00;13.50;;;22.80;85.70;;;;;;4917125;29;20087;-79
2023/07/29 03:43:19;;;;;;;17.67;14.83;;;22.80;85.40;;;;;;4917485;29;20107;-79
2023/07/29 03:45:45;;;;;;;15.77;14.10;;;22.80;85.40;;;;;;4899132;29;20479;-78
2023/07/29 03:48:11;;;;;;;16.73;15.03;;;22.80;85.40;;;;;;4917346;29;20176;-79
2023/07/29 03:50:38;;;;;;;18.85;14.10;;;22.90;85.60;;;;;;4916680;29;20042;-80
2023/07/29 03:53:04;;;;;;;18.97;14.73;;;22.80;85.60;;;;;;4899439;29;20115;-79
2023/07/29 03:55:31;;;;;;;15.95;14.15;;;22.80;85.50;;;;;;4915420;29;20550;-80
2023/07/29 03:57:58;;;;;;;21.83;14.55;;;22.90;85.50;;;;;;4915814;29;20051;-80
2023/07/29 04:00:24;;;;;;;19.42;14.18;;;22.90;85.70;;;;;;4915107;29;20032;-80
2023/07/29 04:02:50;;;;;;;20.75;13.98;;;22.90;85.40;;;;;;4919039;29;20063;-81
2023/07/29 04:05:17;;;;;;;19.67;13.60;;;23.00;85.40;;;;;;4915883;29;20032;-79
2023/07/29 04:07:43;;;;;;;16.77;14.60;;;22.90;85.60;;;;;;4919506;29;20154;-79
2023/07/29 04:10:09;;;;;;;18.35;13.95;;;22.90;85.70;;;;;;4917334;29;20063;-79
2023/07/29 04:12:35;;;;;;;17.25;13.23;;;22.90;85.70;;;;;;4899290;29;20040;-79
2023/07/29 04:15:01;;;;;;;17.30;13.90;;;22.90;85.40;;;;;;4917627;29;20510;-79
2023/07/29 04:17:27;;;;;;;18.90;14.60;;;22.90;85.50;;;;;;4900016;29;20043;-79
2023/07/29 04:19:53;;;;;;;18.60;14.73;;;23.00;85.70;;;;;;4916103;29;20407;-80
2023/07/29 04:22:21;;;;;;;17.63;14.50;;;23.00;85.80;;;;;;4917204;29;20043;-80
2023/07/29 04:24:47;;;;;;;17.10;14.40;;;23.00;85.60;;;;;;4924128;29;20403;-79
2023/07/29 04:27:13;;;;;;;16.00;14.30;;;23.10;85.20;;;;;;4923694;29;20032;-80
2023/07/29 04:29:39;;;;;;;15.67;14.03;;;23.20;84.90;;;;;;4922002;29;20036;-80
2023/07/29 04:32:05;;;;;;;16.70;14.95;;;23.20;84.80;;;;;;4922031;29;20046;-80
2023/07/29 04:34:31;;;;;;;20.30;14.07;;;23.10;84.40;;;;;;4923702;29;20032;-79
2023/07/29 04:36:57;;;;;;;17.95;15.13;;;23.20;84.40;;;;;;4923239;29;20095;-79
2023/07/29 04:39:23;;;;;;;19.55;16.05;;;23.20;84.20;;;;;;4922130;29;20540;-80
2023/07/29 04:41:49;;;;;;;19.97;15.00;;;23.30;84.30;;;;;;4922734;29;20024;-79
2023/07/29 04:44:15;;;;;;;17.67;14.97;;;23.30;84.40;;;;;;4921810;29;20036;-79
2023/07/29 04:46:41;;;;;;;17.77;14.90;;;23.30;84.70;;;;;;4923232;29;20080;-81
2023/07/29 04:49:07;;;;;;;20.37;15.87;;;23.30;85.10;;;;;;4923996;29;20547;-80
2023/07/29 04:51:33;;;;;;;19.57;14.07;;;23.20;85.40;;;;;;4921989;29;20422;-79
2023/07/29 04:53:59;;;;;;;19.13;16.17;;;23.30;85.60;;;;;;4906207;29;20122;-80
2023/07/29 04:56:25;;;;;;;20.38;14.60;;;23.30;85.30;;;;;;4921889;29;20142;-79
2023/07/29 04:58:52;;;;;;;17.58;14.10;;;23.30;85.50;;;;;;4906177;29;20039;-80
2023/07/29 05:01:18;;;;;;;18.55;14.38;;;23.40;85.60;;;;;;4923680;29;20030;-79
2023/07/29 05:03:44;;;;;;;18.17;14.40;;;23.40;85.40;;;;;;4921989;29;20024;-79
2023/07/29 05:06:11;;;;;;;17.77;14.23;;;23.50;85.70;;;;;;4923588;29;20063;-80
2023/07/29 05:08:37;;;;;;;19.70;14.17;;;23.60;85.80;;;;;;4921818;29;20051;-80
2023/07/29 05:11:04;;;;;;;16.90;13.30;;;23.70;85.50;;;;;;4921677;29;20059;-79
2023/07/29 05:13:30;;;;;;;17.00;15.03;;;23.70;85.90;;;;;;4922847;29;20025;-79
2023/07/29 05:15:56;;;;;;;22.60;15.47;;;23.80;85.50;;;;;;4922114;29;20039;-80
2023/07/29 05:18:22;;;;;;;21.67;16.33;;;23.90;85.20;;;;;;4921894;29;20024;-80
2023/07/29 05:20:49;;;;;;;34.30;16.77;;;23.90;84.40;;;;;;4921685;29;20115;-79
2023/07/29 05:23:14;;;;;;;25.77;17.23;;;23.90;84.10;;;;;;4921696;29;20067;-80
2023/07/29 05:25:41;;;;;;;21.33;17.45;;;24.00;84.40;;;;;;4922130;29;20064;-79
2023/07/29 05:28:07;;;;;;;23.43;18.20;;;23.90;84.90;;;;;;4921968;29;20024;-80
2023/07/29 05:30:37;;;;;;;22.37;16.80;;;23.90;84.70;;;;;;4921691;29;20066;-80
2023/07/29 05:33:04;;;;;;;20.70;16.95;;;23.90;84.80;;;;;;4921755;29;20091;-79
2023/07/29 05:35:30;;;;;;;26.17;16.75;;;23.90;85.20;;;;;;4933284;29;20531;-80
2023/07/29 05:37:56;;;;;;;20.97;16.40;;;23.90;84.70;;;;;;4920217;29;20059;-78
2023/07/29 05:40:31;;;;;;;24.33;17.70;;;24.00;85.30;;;;;;4918413;29;20060;-80
2023/07/29 05:42:57;;;;;;;22.33;16.65;;;24.00;85.50;;;;;;4919065;29;20036;-79
2023/07/29 05:45:23;;;;;;;24.87;16.90;;;24.00;85.50;;;;;;4918976;29;20038;-79
2023/07/29 05:47:50;;;;;;;20.08;16.25;;;24.10;86.00;;;;;;4918891;29;20048;-79
2023/07/29 05:50:17;;;;;;;18.60;16.63;;;24.10;85.60;;;;;;4919302;29;20658;-79
2023/07/29 05:52:42;;;;;;;20.53;16.73;;;24.20;85.90;;;;;;4920882;29;20068;-81
2023/07/29 05:55:08;;;;;;;18.93;16.50;;;24.30;86.00;;;;;;4905261;29;20111;-81
2023/07/29 05:57:34;;;;;;;19.83;16.63;;;24.30;85.10;;;;;;4919667;29;20042;-82
2023/07/29 06:00:00;;;;;;;18.80;16.93;;;24.40;84.40;;;;;;4919113;29;20032;-81
2023/07/29 06:02:26;;;;;;;26.00;16.90;;;24.40;84.80;;;;;;4919422;29;20534;-81
2023/07/29 06:04:52;;;;;;;23.87;17.40;;;24.30;83.90;;;;;;4919430;29;20052;-80
2023/07/29 06:07:18;;;;;;;21.67;16.03;;;24.40;84.30;;;;;;4918104;29;20053;-83
2023/07/29 06:09:44;;;;;;;26.03;16.33;;;24.40;84.20;;;;;;4918614;29;20478;-82
2023/07/29 06:12:19;;;;;;;18.35;15.10;;;24.40;83.70;;;;;;4925499;29;20398;-82
2023/07/29 06:14:55;;;;;;;23.02;17.10;;;24.40;83.00;;;;;;4915204;29;20072;-82
2023/07/29 06:17:21;;;;;;;22.43;15.33;;;24.50;82.90;;;;;;4914610;29;20040;-83
2023/07/29 06:19:47;;;;;;;17.47;15.60;;;24.50;82.20;;;;;;4934009;29;20392;-83
2023/07/29 06:22:13;;;;;;;19.77;15.80;;;24.50;81.30;;;;;;4933719;29;20032;-82
2023/07/29 06:24:38;;;;;;;27.10;16.13;;;24.50;81.10;;;;;;4917828;29;20032;-83
2023/07/29 06:27:05;;;;;;;19.43;16.87;;;24.40;80.70;;;;;;4910401;29;20113;-87
2023/07/29 06:29:30;;;;;;;17.63;15.77;;;24.40;81.90;;;;;;4900497;29;20066;-86
2023/07/29 06:31:56;;;;;;;17.53;15.63;;;24.50;82.10;;;;;;4901230;29;20123;-83
2023/07/29 06:34:22;;;;;;;16.97;14.83;;;24.50;82.00;;;;;;4917879;29;20522;-83
2023/07/29 06:36:48;;;;;;;16.20;13.03;;;24.60;81.40;;;;;;4919350;29;20076;-83
2023/07/29 06:39:14;;;;;;;13.10;11.80;;;24.70;80.00;;;;;;4933366;29;20036;-83
2023/07/29 06:41:40;;;;;;;14.30;12.77;;;24.90;79.60;;;;;;4932870;29;20036;-83
2023/07/29 06:44:05;;;;;;;18.53;11.97;;;24.90;77.70;;;;;;4917511;29;20047;-83
2023/07/29 06:46:31;;;;;;;14.50;10.80;;;25.00;76.80;;;;;;4918099;29;20032;-83
2023/07/29 06:48:57;;;;;;;16.52;12.80;;;25.10;77.20;;;;;;4918821;29;20024;-83
2023/07/29 06:51:23;;;;;;;17.77;12.40;;;25.10;77.40;;;;;;4901478;29;20043;-83
2023/07/29 06:53:49;;;;;;;21.47;14.10;;;25.20;78.00;;;;;;4917130;29;20067;-82
2023/07/29 06:56:15;;;;;;;16.90;12.53;;;25.30;78.20;;;;;;4901142;29;20024;-83
2023/07/29 06:58:40;;;;;;;18.47;13.03;;;25.40;78.10;;;;;;4918974;29;20036;-83
2023/07/29 07:01:06;;;;;;;21.13;12.67;;;25.40;77.70;;;;;;4918651;29;20107;-83
2023/07/29 07:03:32;;;;;;;16.90;12.50;;;25.50;77.10;;;;;;4920070;29;20079;-82
2023/07/29 07:05:58;;;;;;;16.67;11.17;;;25.70;76.80;;;;;;4919033;29;20032;-83
2023/07/29 07:08:24;;;;;;;17.42;10.27;;;25.80;75.60;;;;;;4918105;29;20025;-82
2023/07/29 07:10:50;;;;;;;13.73;12.23;;;26.00;75.10;;;;;;4918569;29;20055;-83
2023/07/29 07:13:16;;;;;;;13.77;10.87;;;26.10;74.70;;;;;;4918285;29;20407;-85
2023/07/29 07:15:41;;;;;;;16.43;11.43;;;26.20;74.00;;;;;;4915902;29;20090;-84
2023/07/29 07:18:07;;;;;;;13.10;11.10;;;26.40;73.50;;;;;;4915701;29;20043;-85
2023/07/29 07:20:34;;;;;;;12.50;9.97;;;26.50;72.70;;;;;;4916309;29;20032;-86
2023/07/29 07:23:00;;;;;;;;;;;26.60;73.10;;;;;;4900064;29;20295;-84
2023/07/29 07:25:26;;;;;;;13.63;10.70;;;26.60;73.30;;;;;;4931108;29;20381;-86
2023/07/29 07:27:52;;;;;;;12.03;10.10;;;26.80;73.50;;;;;;4914950;29;20032;-87
2023/07/29 07:30:18;;;;;;;14.93;9.80;;;26.90;72.50;;;;;;4899402;29;20088;-86
2023/07/29 07:32:45;;;;;;;10.97;8.70;;;27.00;72.50;;;;;;4932128;29;20092;-82
2023/07/29 07:35:10;;;;;;;11.55;7.40;;;27.00;69.30;;;;;;4918621;29;20036;-83
2023/07/29 07:37:36;;;;;;;14.20;10.27;;;26.90;70.10;;;;;;4917016;29;20035;-83
2023/07/29 07:40:02;;;;;;;11.97;7.77;;;27.00;71.00;;;;;;4933243;29;20107;-83
2023/07/29 07:42:28;;;;;;;13.73;8.27;;;27.10;70.20;;;;;;4941821;23;20043;-82
2023/07/29 07:44:54;;;;;;;11.57;7.47;;;27.10;70.10;;;;;;4956603;29;20023;-82
2023/07/29 07:47:20;;;;;;;9.90;8.00;;;27.10;69.90;;;;;;4956164;29;20574;-82
2023/07/29 07:49:45;;;;;;;11.27;7.67;;;27.10;70.20;;;;;;4957501;28;20027;-81
2023/07/29 07:52:11;;;;;;;9.00;8.00;;;27.10;70.40;;;;;;4951270;28;20394;-80
2023/07/29 07:54:37;;;;;;;10.37;8.10;;;27.10;69.80;;;;;;4937265;29;20038;-80
2023/07/29 07:57:03;;;;;;;12.10;8.87;;;26.90;70.10;;;;;;4951555;28;20028;-79
2023/07/29 07:59:29;;;;;;;10.80;6.82;;;26.80;70.90;;;;;;4952378;29;20028;-77
2023/07/29 08:01:55;;;;;;;8.80;7.40;;;26.80;70.60;;;;;;4951685;29;20030;-78
2023/07/29 08:04:20;;;;;;;9.60;7.03;;;26.70;70.20;;;;;;4938591;29;20024;-78
2023/07/29 08:06:46;;;;;;;12.00;8.33;;;26.70;70.50;;;;;;4935989;29;20042;-78
2023/07/29 08:09:12;;;;;;;11.20;7.90;;;26.60;70.30;;;;;;4938590;29;20056;-78
2023/07/29 08:11:38;;;;;;;8.03;5.33;;;26.60;70.80;;;;;;4938798;29;20028;-77
2023/07/29 08:14:04;;;;;;;7.67;5.90;;;26.70;71.20;;;;;;4954866;29;20569;-77
2023/07/29 08:16:30;;;;;;;11.47;7.20;;;26.70;71.10;;;;;;4952755;28;20036;-77
2023/07/29 08:18:56;;;;;;;9.73;6.90;;;26.70;70.90;;;;;;4954114;29;20035;-77
2023/07/29 08:21:21;;;;;;;11.43;7.40;;;26.70;71.10;;;;;;4938557;29;20402;-78
2023/07/29 08:23:47;;;;;;;10.77;7.17;;;26.70;71.20;;;;;;4938381;29;20031;-77
2023/07/29 08:26:13;;;;;;;7.97;4.73;;;26.70;71.80;;;;;;4938180;29;20130;-78
2023/07/29 08:28:40;;;;;;;11.33;6.13;;;26.70;71.50;;;;;;4940660;29;20044;-79
2023/07/29 08:31:05;;;;;;;;;;;26.70;71.90;;;;;;4953984;29;20055;-77
2023/07/29 08:33:33;;;;;;;9.35;5.80;;;26.60;71.30;;;;;;4938597;29;19922;-77
2023/07/29 08:35:59;;;;;;;6.15;5.47;;;26.60;71.50;;;;;;4939927;29;20016;-78
2023/07/29 08:38:26;;;;;;;8.65;6.18;;;26.70;71.80;;;;;;4953921;29;20027;-79
2023/07/29 08:41:10;;;;;;;6.72;3.92;;;26.70;71.80;;;;;;4940208;29;20036;-78
2023/07/29 08:43:39;;;;;;;8.60;4.65;;;26.80;72.10;;;;;;4938867;29;20039;-77
2023/07/29 08:46:06;;;;;;;11.07;6.32;;;26.70;71.20;;;;;;4953829;29;20023;-78
2023/07/29 08:48:40;;;;;;;9.50;4.80;;;26.80;71.80;;;;;;4936515;29;20038;-78
2023/07/29 08:51:09;;;;;;;6.93;5.10;;;26.90;71.30;;;;;;4938070;29;20028;-77
2023/07/29 08:53:35;;;;;;;9.60;5.32;;;26.90;71.30;;;;;;4921290;29;20068;-78
2023/07/29 08:56:01;;;;;;;9.15;5.05;;;27.00;71.00;;;;;;4938718;29;20060;-77
2023/07/29 08:58:28;;;;;;;5.88;4.22;;;27.10;71.90;;;;;;4952851;28;20119;-78
2023/07/29 09:00:54;;;;;;;8.13;4.90;;;27.10;70.90;;;;;;4950672;29;20103;-78
2023/07/29 09:03:20;;;;;;;11.43;4.77;;;27.10;70.60;;;;;;4936786;29;20051;-77
2023/07/29 09:05:47;;;;;;;8.35;4.68;;;27.10;71.10;;;;;;4950198;29;20272;-77
2023/07/29 09:08:14;;;;;;;7.72;4.53;;;26.90;70.20;;;;;;4936141;29;20510;-78
2023/07/29 09:10:40;;;;;;;10.75;3.88;;;26.90;70.90;;;;;;4938996;29;20110;-79
2023/07/29 09:13:07;;;;;;;8.82;4.20;;;27.00;71.20;;;;;;4939917;29;20035;-78
2023/07/29 09:15:35;;;;;;;7.28;5.05;;;27.10;71.30;;;;;;4937920;29;20071;-78
2023/07/29 09:18:15;;;;;;;8.60;5.00;;;27.30;71.00;;;;;;4940876;29;20095;-77
2023/07/29 09:20:41;;;;;;;7.97;3.90;;;27.30;71.00;;;;;;4941540;29;20099;-77
2023/07/29 09:23:12;;;;;;;18.42;5.60;;;27.30;70.00;;;;;;4954313;29;20114;-78
2023/07/29 09:25:38;;;;;;;6.55;4.50;;;27.40;69.90;;;;;;4940030;29;20032;-78
2023/07/29 09:28:08;;;;;;;;;;;27.40;70.30;;;;;;4941803;29;20024;-78
2023/07/29 09:30:34;;;;;;;8.77;6.10;;;27.50;70.80;;;;;;4940045;29;19993;-78
2023/07/29 09:33:00;;;;;;;8.70;4.17;;;27.60;70.40;;;;;;4940263;29;20067;-78
2023/07/29 09:35:28;;;;;;;7.63;4.47;;;27.70;69.10;;;;;;4940219;29;20038;-78
2023/07/29 09:37:54;;;;;;;5.47;4.20;;;27.80;68.70;;;;;;4938283;29;20040;-78
2023/07/29 09:40:20;;;;;;;8.23;5.00;;;27.80;68.60;;;;;;4924468;29;20095;-78
2023/07/29 09:42:50;;;;;;;7.73;4.33;;;27.90;69.50;;;;;;4944134;29;20036;-80
2023/07/29 09:45:24;;;;;;;8.90;3.15;;;27.90;67.90;;;;;;4942104;29;20346;-79
2023/07/29 09:47:51;;;;;;;4.68;3.08;;;28.00;66.50;;;;;;4957101;29;20036;-78
2023/07/29 09:50:17;;;;;;;8.32;3.90;;;28.10;66.30;;;;;;4939625;29;20054;-78
2023/07/29 09:52:43;;;;;;;6.32;3.97;;;28.10;67.60;;;;;;4938445;29;20031;-79
2023/07/29 09:55:16;;;;;;;7.93;3.45;;;28.20;67.30;;;;;;4953142;28;20036;-78
2023/07/29 09:57:43;;;;;;;4.90;4.15;;;28.20;66.90;;;;;;4952663;28;20036;-79
2023/07/29 10:00:12;;;;;;;8.18;4.35;;;28.20;66.70;;;;;;4938914;29;20032;-79
2023/07/29 10:02:42;;;;;;;6.50;4.15;;;28.10;66.80;;;;;;4936961;29;20039;-78
2023/07/29 10:05:09;;;;;;;6.85;4.00;;;28.10;67.00;;;;;;4938388;29;20115;-78
2023/07/29 10:07:39;;;;;;;5.03;3.22;;;28.10;66.60;;;;;;4952863;28;20317;-79
2023/07/29 10:10:07;;;;;;;5.00;3.15;;;28.20;66.90;;;;;;4939291;29;20038;-79
2023/07/29 10:12:34;;;;;;;5.15;3.63;;;28.30;66.50;;;;;;4936052;29;20078;-78
2023/07/29 10:15:03;;;;;;;5.22;3.45;;;28.40;66.00;;;;;;4939284;29;20040;-78
2023/07/29 10:17:30;;;;;;;7.78;4.03;;;28.50;66.20;;;;;;4936770;29;20039;-78
2023/07/29 10:20:00;;;;;;;8.88;4.40;;;28.60;65.80;;;;;;4938112;29;20119;-77
2023/07/29 10:22:32;;;;;;;12.10;4.03;;;28.60;66.00;;;;;;4938305;29;20490;-80
2023/07/29 10:25:09;;;;;;;6.72;3.72;;;28.60;66.20;;;;;;4938118;29;20032;-80
2023/07/29 10:27:43;;;;;;;7.70;4.28;;;28.80;65.90;;;;;;4952186;29;20452;-81
2023/07/29 10:30:12;;;;;;;8.73;4.47;;;28.80;64.60;;;;;;4952003;29;20039;-83
2023/07/29 10:32:39;;;;;;;8.77;4.50;;;28.80;65.20;;;;;;4952479;29;20395;-82
2023/07/29 10:35:06;;;;;;;7.10;4.75;;;28.70;65.80;;;;;;4952422;29;20027;-83
2023/07/29 10:37:32;;;;;;;8.93;4.32;;;28.70;65.40;;;;;;4951926;29;20063;-82
2023/07/29 10:39:58;;;;;;;7.55;3.63;;;28.60;65.60;;;;;;4936496;29;20131;-82
2023/07/29 10:42:24;;;;;;;6.93;4.37;;;28.50;65.80;;;;;;4952825;29;20059;-83
2023/07/29 10:44:52;;;;;;;7.43;3.80;;;28.60;66.00;;;;;;4940852;29;20028;-84
2023/07/29 10:47:27;;;;;;;8.02;4.32;;;28.70;66.50;;;;;;4941376;29;20019;-83
2023/07/29 10:49:55;;;;;;;11.70;4.32;;;29.10;65.40;;;;;;4952236;29;20506;-86
2023/07/29 10:52:37;;;;;;;5.13;3.58;;;29.20;64.60;;;;;;4942041;29;20036;-81
2023/07/29 10:55:22;;;;;;;5.65;3.70;;;29.30;64.00;;;;;;4939773;29;20031;-83
2023/07/29 10:57:48;;;;;;;6.38;3.50;;;29.30;65.40;;;;;;4922607;29;20144;-83
2023/07/29 11:00:19;;;;;;;6.15;4.40;;;29.20;64.50;;;;;;4938854;29;20114;-83
2023/07/29 11:03:00;;;;;;;6.93;4.38;;;29.20;64.40;;;;;;4937896;29;20028;-83
2023/07/29 11:05:41;;;;;;;8.55;4.13;;;29.10;65.10;;;;;;4938883;29;20038;-84
2023/07/29 11:08:20;;;;;;;13.10;4.25;;;29.00;65.30;;;;;;4938086;29;20042;-82
2023/07/29 11:10:58;;;;;;;24.92;5.93;;;29.00;65.60;;;;;;4937188;29;20651;-81
2023/07/29 11:13:28;;;;;;;7.90;4.15;;;29.30;66.60;;;;;;4938225;29;20086;-80
2023/07/29 11:15:56;;;;;;;5.53;3.80;;;29.40;64.50;;;;;;4921877;29;20047;-83
2023/07/29 11:18:22;;;;;;;7.72;3.50;;;29.60;64.80;;;;;;4940876;29;20031;-82
2023/07/29 11:20:48;;;;;;;7.50;4.93;;;29.80;64.90;;;;;;4940274;29;20036;-84
2023/07/29 11:23:15;;;;;;;12.52;9.57;;;29.80;64.10;;;;;;4936842;29;20107;-84
2023/07/29 11:25:41;;;;;;;11.75;6.18;;;30.00;64.70;;;;;;4935755;29;20035;-85
2023/07/29 11:28:07;;;;;;;9.97;4.83;;;30.00;62.60;;;;;;4936039;29;20071;-86
2023/07/29 11:30:33;;;;;;;4.20;3.58;;;30.10;62.20;;;;;;4935917;29;20302;-84
2023/07/29 11:33:00;;;;;;;6.68;3.53;;;30.30;62.30;;;;;;4944867;28;20032;-82
2023/07/29 11:35:26;;;;;;;5.43;3.28;;;30.30;61.00;;;;;;4938610;29;20077;-83
2023/07/29 11:37:53;;;;;;;5.80;3.00;;;30.10;60.80;;;;;;4935659;29;20417;-82
2023/07/29 11:40:22;;;;;;;6.82;3.28;;;30.30;61.20;;;;;;4935820;29;20521;-83
2023/07/29 11:42:50;;;;;;;8.32;3.67;;;30.30;59.40;;;;;;4936867;29;20405;-83
2023/07/29 11:45:17;;;;;;;8.60;3.63;;;30.50;59.90;;;;;;4936985;29;20028;-81
2023/07/29 11:47:43;;;;;;;4.70;3.05;;;30.70;61.80;;;;;;4923842;29;20419;-81
2023/07/29 11:50:13;;;;;;;7.53;3.00;;;30.80;58.90;;;;;;4920871;29;20056;-81
2023/07/29 11:52:45;;;;;;;4.00;2.85;;;30.70;58.70;;;;;;4917596;29;20039;-81
2023/07/29 11:55:13;;;;;;;5.30;2.67;;;30.60;58.00;;;;;;4924299;29;20075;-81
2023/07/29 11:57:39;;;;;;;4.97;2.85;;;30.70;59.20;;;;;;4938355;29;20032;-81
2023/07/29 12:00:09;;;;;;;4.93;2.50;;;30.80;58.30;;;;;;4938619;29;20111;-81
2023/07/29 12:02:39;;;;;;;4.95;2.53;;;30.90;57.60;;;;;;4939012;29;20031;-81
2023/07/29 12:05:06;;;;;;;5.40;2.83;;;31.10;58.50;;;;;;4940124;29;20038;-81
2023/07/29 12:07:35;;;;;;;4.32;3.20;;;31.40;58.30;;;;;;4940548;29;20024;-81
2023/07/29 12:10:03;;;;;;;4.50;3.03;;;31.40;57.20;;;;;;4938091;29;20045;-81
2023/07/29 12:12:29;;;;;;;8.23;3.05;;;31.40;58.50;;;;;;4936440;29;20027;-81
2023/07/29 12:14:55;;;;;;;5.13;2.60;;;31.40;58.50;;;;;;4936825;29;20035;-81
2023/07/29 12:17:21;;;;;;;4.97;3.50;;;31.20;58.70;;;;;;4936511;29;20031;-81
2023/07/29 12:19:47;;;;;;;4.70;2.88;;;31.10;57.90;;;;;;4935925;29;20032;-81
2023/07/29 12:22:18;;;;;;;7.82;3.47;;;31.10;58.00;;;;;;4938320;29;20595;-81
2023/07/29 12:24:44;;;;;;;4.90;2.88;;;31.10;58.10;;;;;;4919567;29;20035;-81
2023/07/29 12:27:12;;;;;;;5.32;2.80;;;31.00;56.80;;;;;;4938600;29;20020;-81
2023/07/29 12:29:43;;;;;;;5.13;3.20;;;30.90;58.10;;;;;;4938196;29;20028;-81
2023/07/29 12:32:09;;;;;;;3.53;2.78;;;31.10;58.10;;;;;;4936084;29;20039;-81
2023/07/29 12:34:37;;;;;;;4.32;2.78;;;31.20;59.30;;;;;;4936823;29;20395;-81
2023/07/29 12:37:04;;;;;;;3.70;2.47;;;31.40;57.00;;;;;;4936903;29;20034;-81